sensor_id;sensor_type;location;lat;lon;timestamp;temperature;humidity
48575;DHT22;34352;51.084;3.712;2023-04-03T00:01:12;5.00;1.00
48575;DHT22;34352;51.084;3.712;2023-04-03T00:03:58;5.10;1.00
48575;DHT22;34352;51.084;3.712;2023-04-03T00:06:32;5.00;1.00
48575;DHT22;34352;51.084;3.712;2023-04-03T00:08:59;5.20;1.00
48575;DHT22;34352;51.084;3.712;2023-04-03T00:11:30;5.00;1.00
48575;DHT22;34352;51.084;3.712;2023-04-03T00:13:56;4.90;1.00
48575;DHT22;34352;51.084;3.712;2023-04-03T00:16:44;5.40;1.00
48575;DHT22;34352;51.084;3.712;2023-04-03T00:19:33;5.00;1.00
48575;DHT22;34352;51.084;3.712;2023-04-03T00:21:59;4.80;1.00
48575;DHT22;34352;51.084;3.712;2023-04-03T00:24:41;4.90;1.00
48575;DHT22;34352;51.084;3.712;2023-04-03T00:27:21;4.90;1.00
48575;DHT22;34352;51.084;3.712;2023-04-03T00:29:55;5.00;1.00
48575;DHT22;34352;51.084;3.712;2023-04-03T00:32:22;5.00;1.00
48575;DHT22;34352;51.084;3.712;2023-04-03T00:35:00;5.00;1.00
48575;DHT22;34352;51.084;3.712;2023-04-03T00:37:33;6.30;1.00
48575;DHT22;34352;51.084;3.712;2023-04-03T00:43:20;4.90;1.00
48575;DHT22;34352;51.084;3.712;2023-04-03T00:46:00;5.10;1.00
48575;DHT22;34352;51.084;3.712;2023-04-03T00:48:44;4.80;1.00
48575;DHT22;34352;51.084;3.712;2023-04-03T00:51:20;4.80;1.00
48575;DHT22;34352;51.084;3.712;2023-04-03T00:53:58;4.90;1.00
48575;DHT22;34352;51.084;3.712;2023-04-03T00:56:55;4.90;1.00
48575;DHT22;34352;51.084;3.712;2023-04-03T00:59:27;4.90;1.00
48575;DHT22;34352;51.084;3.712;2023-04-03T01:02:01;4.90;1.00
48575;DHT22;34352;51.084;3.712;2023-04-03T01:04:28;5.70;1.00
48575;DHT22;34352;51.084;3.712;2023-04-03T01:07:18;4.80;1.00
48575;DHT22;34352;51.084;3.712;2023-04-03T01:09:47;4.90;1.00
48575;DHT22;34352;51.084;3.712;2023-04-03T01:12:32;4.80;1.00
48575;DHT22;34352;51.084;3.712;2023-04-03T01:15:29;4.80;1.00
48575;DHT22;34352;51.084;3.712;2023-04-03T01:18:14;4.70;1.00
48575;DHT22;34352;51.084;3.712;2023-04-03T01:23:47;4.80;1.00
48575;DHT22;34352;51.084;3.712;2023-04-03T01:26:24;4.80;1.00
48575;DHT22;34352;51.084;3.712;2023-04-03T01:29:19;4.80;1.00
48575;DHT22;34352;51.084;3.712;2023-04-03T01:34:58;4.70;1.00
48575;DHT22;34352;51.084;3.712;2023-04-03T01:40:45;4.60;1.00
48575;DHT22;34352;51.084;3.712;2023-04-03T01:43:19;4.80;1.00
48575;DHT22;34352;51.084;3.712;2023-04-03T01:45:47;4.50;4.70
48575;DHT22;34352;51.084;3.712;2023-04-03T01:48:16;4.40;5.20
48575;DHT22;34352;51.084;3.712;2023-04-03T01:50:42;4.50;7.50
48575;DHT22;34352;51.084;3.712;2023-04-03T01:53:16;4.50;5.50
48575;DHT22;34352;51.084;3.712;2023-04-03T01:56:04;4.60;6.00
48575;DHT22;34352;51.084;3.712;2023-04-03T01:58:31;4.50;8.60
48575;DHT22;34352;51.084;3.712;2023-04-03T02:01:16;4.50;8.80
48575;DHT22;34352;51.084;3.712;2023-04-03T02:07:08;4.40;15.10
48575;DHT22;34352;51.084;3.712;2023-04-03T02:09:35;4.30;15.90
48575;DHT22;34352;51.084;3.712;2023-04-03T02:12:22;4.30;16.10
48575;DHT22;34352;51.084;3.712;2023-04-03T02:15:19;4.30;16.50
48575;DHT22;34352;51.084;3.712;2023-04-03T02:17:45;4.30;20.10
48575;DHT22;34352;51.084;3.712;2023-04-03T02:20:27;4.20;18.30
48575;DHT22;34352;51.084;3.712;2023-04-03T02:22:59;4.00;23.80
48575;DHT22;34352;51.084;3.712;2023-04-03T02:25:26;4.10;23.30
48575;DHT22;34352;51.084;3.712;2023-04-03T02:31:03;4.30;13.70
48575;DHT22;34352;51.084;3.712;2023-04-03T02:33:40;4.50;15.40
48575;DHT22;34352;51.084;3.712;2023-04-03T02:36:08;4.20;15.10
48575;DHT22;34352;51.084;3.712;2023-04-03T02:38:52;4.30;12.10
48575;DHT22;34352;51.084;3.712;2023-04-03T02:41:18;4.50;10.40
48575;DHT22;34352;51.084;3.712;2023-04-03T02:43:49;4.30;9.20
48575;DHT22;34352;51.084;3.712;2023-04-03T02:46:31;5.20;10.30
48575;DHT22;34352;51.084;3.712;2023-04-03T02:49:12;4.40;3.00
48575;DHT22;34352;51.084;3.712;2023-04-03T02:51:39;4.60;1.00
48575;DHT22;34352;51.084;3.712;2023-04-03T02:54:05;4.50;1.00
48575;DHT22;34352;51.084;3.712;2023-04-03T02:56:35;4.50;1.00
48575;DHT22;34352;51.084;3.712;2023-04-03T02:59:14;4.60;1.00
48575;DHT22;34352;51.084;3.712;2023-04-03T03:01:43;5.00;1.00
48575;DHT22;34352;51.084;3.712;2023-04-03T03:04:17;4.50;1.00
48575;DHT22;34352;51.084;3.712;2023-04-03T03:06:49;4.40;1.00
48575;DHT22;34352;51.084;3.712;2023-04-03T03:09:17;4.50;1.00
48575;DHT22;34352;51.084;3.712;2023-04-03T03:11:48;4.50;1.00
48575;DHT22;34352;51.084;3.712;2023-04-03T03:14:16;4.90;1.00
48575;DHT22;34352;51.084;3.712;2023-04-03T03:16:49;4.50;1.00
48575;DHT22;34352;51.084;3.712;2023-04-03T03:19:37;4.50;1.00
48575;DHT22;34352;51.084;3.712;2023-04-03T03:22:10;4.50;1.00
48575;DHT22;34352;51.084;3.712;2023-04-03T03:24:37;4.60;1.00
48575;DHT22;34352;51.084;3.712;2023-04-03T03:27:03;4.60;1.00
48575;DHT22;34352;51.084;3.712;2023-04-03T03:29:30;4.70;1.00
48575;DHT22;34352;51.084;3.712;2023-04-03T03:31:57;4.70;1.00
48575;DHT22;34352;51.084;3.712;2023-04-03T03:34:33;4.60;1.00
48575;DHT22;34352;51.084;3.712;2023-04-03T03:37:07;4.60;1.00
48575;DHT22;34352;51.084;3.712;2023-04-03T03:39:39;5.60;1.00
48575;DHT22;34352;51.084;3.712;2023-04-03T03:42:09;4.60;1.00
48575;DHT22;34352;51.084;3.712;2023-04-03T03:44:45;4.80;1.00
48575;DHT22;34352;51.084;3.712;2023-04-03T03:47:13;4.50;1.00
48575;DHT22;34352;51.084;3.712;2023-04-03T03:49:40;4.60;1.00
48575;DHT22;34352;51.084;3.712;2023-04-03T03:52:11;4.50;1.00
48575;DHT22;34352;51.084;3.712;2023-04-03T03:55:14;4.50;1.00
48575;DHT22;34352;51.084;3.712;2023-04-03T03:57:47;4.50;1.00
48575;DHT22;34352;51.084;3.712;2023-04-03T04:00:15;4.60;1.00
48575;DHT22;34352;51.084;3.712;2023-04-03T04:03:04;4.50;1.00
48575;DHT22;34352;51.084;3.712;2023-04-03T04:05:41;4.40;1.00
48575;DHT22;34352;51.084;3.712;2023-04-03T04:08:21;4.50;1.00
48575;DHT22;34352;51.084;3.712;2023-04-03T04:10:49;5.30;1.00
48575;DHT22;34352;51.084;3.712;2023-04-03T04:13:15;4.80;1.00
48575;DHT22;34352;51.084;3.712;2023-04-03T04:15:47;4.60;1.00
48575;DHT22;34352;51.084;3.712;2023-04-03T04:18:15;4.40;1.00
48575;DHT22;34352;51.084;3.712;2023-04-03T04:21:04;4.30;1.00
48575;DHT22;34352;51.084;3.712;2023-04-03T04:23:35;4.30;1.00
48575;DHT22;34352;51.084;3.712;2023-04-03T04:26:04;4.40;1.00
48575;DHT22;34352;51.084;3.712;2023-04-03T04:28:32;4.30;1.00
48575;DHT22;34352;51.084;3.712;2023-04-03T04:31:18;4.80;1.00
48575;DHT22;34352;51.084;3.712;2023-04-03T04:34:14;4.20;1.00
48575;DHT22;34352;51.084;3.712;2023-04-03T04:37:08;4.20;1.00
48575;DHT22;34352;51.084;3.712;2023-04-03T04:39:58;4.30;1.00
48575;DHT22;34352;51.084;3.712;2023-04-03T04:42:34;4.30;1.00
48575;DHT22;34352;51.084;3.712;2023-04-03T04:45:04;4.20;1.00
48575;DHT22;34352;51.084;3.712;2023-04-03T04:47:33;4.20;1.00
48575;DHT22;34352;51.084;3.712;2023-04-03T04:50:04;4.10;1.00
48575;DHT22;34352;51.084;3.712;2023-04-03T04:52:33;4.10;1.00
48575;DHT22;34352;51.084;3.712;2023-04-03T04:55:06;5.60;1.00
48575;DHT22;34352;51.084;3.712;2023-04-03T04:57:36;4.00;1.00
48575;DHT22;34352;51.084;3.712;2023-04-03T05:00:26;4.90;1.00
48575;DHT22;34352;51.084;3.712;2023-04-03T05:02:54;3.90;1.00
48575;DHT22;34352;51.084;3.712;2023-04-03T05:05:25;4.20;4.30
48575;DHT22;34352;51.084;3.712;2023-04-03T05:07:51;3.80;10.90
48575;DHT22;34352;51.084;3.712;2023-04-03T05:10:20;3.70;15.10
48575;DHT22;34352;51.084;3.712;2023-04-03T05:12:46;3.90;10.40
48575;DHT22;34352;51.084;3.712;2023-04-03T05:15:12;4.70;10.30
48575;DHT22;34352;51.084;3.712;2023-04-03T05:17:44;3.80;14.70
48575;DHT22;34352;51.084;3.712;2023-04-03T05:20:19;3.80;13.20
48575;DHT22;34352;51.084;3.712;2023-04-03T05:22:57;3.80;16.60
48575;DHT22;34352;51.084;3.712;2023-04-03T05:25:23;3.80;14.90
48575;DHT22;34352;51.084;3.712;2023-04-03T05:27:51;4.10;15.40
48575;DHT22;34352;51.084;3.712;2023-04-03T05:30:34;4.60;13.70
48575;DHT22;34352;51.084;3.712;2023-04-03T05:33:02;3.90;14.20
48575;DHT22;34352;51.084;3.712;2023-04-03T05:35:28;3.90;15.30
48575;DHT22;34352;51.084;3.712;2023-04-03T05:37:56;3.90;17.70
48575;DHT22;34352;51.084;3.712;2023-04-03T05:40:25;3.80;19.30
48575;DHT22;34352;51.084;3.712;2023-04-03T05:42:52;3.70;25.00
48575;DHT22;34352;51.084;3.712;2023-04-03T05:45:29;3.70;26.50
48575;DHT22;34352;51.084;3.712;2023-04-03T05:47:57;4.20;29.20
48575;DHT22;34352;51.084;3.712;2023-04-03T05:50:25;4.00;26.10
48575;DHT22;34352;51.084;3.712;2023-04-03T05:52:54;3.80;27.10
48575;DHT22;34352;51.084;3.712;2023-04-03T05:55:21;4.40;27.20
48575;DHT22;34352;51.084;3.712;2023-04-03T05:57:49;4.00;25.60
48575;DHT22;34352;51.084;3.712;2023-04-03T06:00:24;4.00;23.70
48575;DHT22;34352;51.084;3.712;2023-04-03T06:02:50;3.80;22.50
48575;DHT22;34352;51.084;3.712;2023-04-03T06:08:45;4.10;18.90
48575;DHT22;34352;51.084;3.712;2023-04-03T06:11:19;4.20;16.30
48575;DHT22;34352;51.084;3.712;2023-04-03T06:13:46;4.40;9.20
48575;DHT22;34352;51.084;3.712;2023-04-03T06:16:14;4.50;4.80
48575;DHT22;34352;51.084;3.712;2023-04-03T06:18:41;4.50;5.20
48575;DHT22;34352;51.084;3.712;2023-04-03T06:21:08;4.60;1.00
48575;DHT22;34352;51.084;3.712;2023-04-03T06:23:44;6.00;1.00
48575;DHT22;34352;51.084;3.712;2023-04-03T06:26:13;4.70;1.00
48575;DHT22;34352;51.084;3.712;2023-04-03T06:28:57;5.20;1.00
48575;DHT22;34352;51.084;3.712;2023-04-03T06:31:24;4.90;1.00
48575;DHT22;34352;51.084;3.712;2023-04-03T06:33:59;5.30;1.00
48575;DHT22;34352;51.084;3.712;2023-04-03T06:36:25;6.30;1.00
48575;DHT22;34352;51.084;3.712;2023-04-03T06:38:53;7.30;1.00
48575;DHT22;34352;51.084;3.712;2023-04-03T06:41:21;8.10;1.00
48575;DHT22;34352;51.084;3.712;2023-04-03T06:43:47;9.10;1.00
48575;DHT22;34352;51.084;3.712;2023-04-03T06:46:27;9.90;99.90
48575;DHT22;34352;51.084;3.712;2023-04-03T06:49:00;10.50;99.90
48575;DHT22;34352;51.084;3.712;2023-04-03T06:54:58;11.50;99.90
48575;DHT22;34352;51.084;3.712;2023-04-03T06:57:43;12.00;99.90
48575;DHT22;34352;51.084;3.712;2023-04-03T07:00:19;12.90;99.90
48575;DHT22;34352;51.084;3.712;2023-04-03T07:02:46;13.20;99.90
48575;DHT22;34352;51.084;3.712;2023-04-03T07:05:14;13.50;99.90
48575;DHT22;34352;51.084;3.712;2023-04-03T07:07:41;13.60;99.90
48575;DHT22;34352;51.084;3.712;2023-04-03T07:10:08;13.60;99.90
48575;DHT22;34352;51.084;3.712;2023-04-03T07:12:36;13.80;99.90
48575;DHT22;34352;51.084;3.712;2023-04-03T07:15:05;13.70;99.90
48575;DHT22;34352;51.084;3.712;2023-04-03T07:17:43;13.90;99.90
48575;DHT22;34352;51.084;3.712;2023-04-03T07:20:20;13.40;99.90
48575;DHT22;34352;51.084;3.712;2023-04-03T07:23:01;13.80;99.90
48575;DHT22;34352;51.084;3.712;2023-04-03T07:25:42;14.00;99.90
48575;DHT22;34352;51.084;3.712;2023-04-03T07:28:11;13.80;99.90
48575;DHT22;34352;51.084;3.712;2023-04-03T07:30:53;14.50;99.90
48575;DHT22;34352;51.084;3.712;2023-04-03T07:33:22;14.40;99.90
48575;DHT22;34352;51.084;3.712;2023-04-03T07:35:48;14.70;99.90
48575;DHT22;34352;51.084;3.712;2023-04-03T07:38:14;14.60;99.90
48575;DHT22;34352;51.084;3.712;2023-04-03T07:40:48;14.50;99.90
48575;DHT22;34352;51.084;3.712;2023-04-03T07:43:16;14.40;99.90
48575;DHT22;34352;51.084;3.712;2023-04-03T07:45:43;14.50;99.90
48575;DHT22;34352;51.084;3.712;2023-04-03T07:48:10;14.00;99.90
48575;DHT22;34352;51.084;3.712;2023-04-03T07:50:36;14.50;99.90
48575;DHT22;34352;51.084;3.712;2023-04-03T07:53:02;14.50;99.90
48575;DHT22;34352;51.084;3.712;2023-04-03T07:55:28;13.90;99.90
48575;DHT22;34352;51.084;3.712;2023-04-03T07:57:54;14.50;99.90
48575;DHT22;34352;51.084;3.712;2023-04-03T08:00:21;14.20;99.90
48575;DHT22;34352;51.084;3.712;2023-04-03T08:02:47;13.90;99.90
48575;DHT22;34352;51.084;3.712;2023-04-03T08:05:18;13.90;99.90
48575;DHT22;34352;51.084;3.712;2023-04-03T08:07:44;14.20;99.90
48575;DHT22;34352;51.084;3.712;2023-04-03T08:10:10;14.80;99.90
48575;DHT22;34352;51.084;3.712;2023-04-03T08:12:36;15.30;99.90
48575;DHT22;34352;51.084;3.712;2023-04-03T08:15:03;15.30;99.90
48575;DHT22;34352;51.084;3.712;2023-04-03T08:17:30;15.30;99.90
48575;DHT22;34352;51.084;3.712;2023-04-03T08:19:56;15.40;99.90
48575;DHT22;34352;51.084;3.712;2023-04-03T08:22:21;15.00;99.90
48575;DHT22;34352;51.084;3.712;2023-04-03T08:24:47;15.10;99.90
48575;DHT22;34352;51.084;3.712;2023-04-03T08:27:14;15.20;99.90
48575;DHT22;34352;51.084;3.712;2023-04-03T08:29:39;14.70;99.90
48575;DHT22;34352;51.084;3.712;2023-04-03T08:32:05;15.20;99.90
48575;DHT22;34352;51.084;3.712;2023-04-03T08:34:32;15.30;99.90
48575;DHT22;34352;51.084;3.712;2023-04-03T08:37:03;15.50;99.90
48575;DHT22;34352;51.084;3.712;2023-04-03T08:39:29;15.50;99.90
48575;DHT22;34352;51.084;3.712;2023-04-03T08:41:58;15.50;99.90
48575;DHT22;34352;51.084;3.712;2023-04-03T08:44:53;15.70;99.90
48575;DHT22;34352;51.084;3.712;2023-04-03T08:47:38;15.20;99.90
48575;DHT22;34352;51.084;3.712;2023-04-03T08:50:07;15.50;99.90
48575;DHT22;34352;51.084;3.712;2023-04-03T08:57:58;16.50;99.90
48575;DHT22;34352;51.084;3.712;2023-04-03T09:00:28;16.00;99.90
48575;DHT22;34352;51.084;3.712;2023-04-03T09:02:56;15.90;99.90
48575;DHT22;34352;51.084;3.712;2023-04-03T09:08:31;16.40;99.90
48575;DHT22;34352;51.084;3.712;2023-04-03T09:11:25;16.20;99.90
48575;DHT22;34352;51.084;3.712;2023-04-03T09:16:49;17.10;99.90
48575;DHT22;34352;51.084;3.712;2023-04-03T09:19:41;17.10;99.90
48575;DHT22;34352;51.084;3.712;2023-04-03T09:22:16;17.50;99.90
48575;DHT22;34352;51.084;3.712;2023-04-03T09:27:36;16.60;99.90
48575;DHT22;34352;51.084;3.712;2023-04-03T09:30:02;16.30;99.90
48575;DHT22;34352;51.084;3.712;2023-04-03T09:32:31;16.60;99.90
48575;DHT22;34352;51.084;3.712;2023-04-03T09:35:04;16.80;99.90
48575;DHT22;34352;51.084;3.712;2023-04-03T09:37:41;15.90;99.90
48575;DHT22;34352;51.084;3.712;2023-04-03T09:40:34;16.30;99.90
48575;DHT22;34352;51.084;3.712;2023-04-03T09:43:26;15.90;99.90
48575;DHT22;34352;51.084;3.712;2023-04-03T09:45:53;16.90;99.90
48575;DHT22;34352;51.084;3.712;2023-04-03T09:48:24;17.10;99.90
48575;DHT22;34352;51.084;3.712;2023-04-03T09:56:04;17.10;99.90
48575;DHT22;34352;51.084;3.712;2023-04-03T09:58:40;16.70;99.90
48575;DHT22;34352;51.084;3.712;2023-04-03T10:01:28;17.10;99.90
48575;DHT22;34352;51.084;3.712;2023-04-03T10:04:16;16.80;99.90
48575;DHT22;34352;51.084;3.712;2023-04-03T10:06:56;16.20;99.90
48575;DHT22;34352;51.084;3.712;2023-04-03T10:14:53;17.10;99.90
48575;DHT22;34352;51.084;3.712;2023-04-03T10:17:38;16.90;99.90
48575;DHT22;34352;51.084;3.712;2023-04-03T10:20:36;17.10;99.90
48575;DHT22;34352;51.084;3.712;2023-04-03T10:23:31;17.90;99.90
48575;DHT22;34352;51.084;3.712;2023-04-03T10:26:26;17.90;99.90
48575;DHT22;34352;51.084;3.712;2023-04-03T10:35:07;17.40;99.90
48575;DHT22;34352;51.084;3.712;2023-04-03T10:41:02;17.40;99.90
48575;DHT22;34352;51.084;3.712;2023-04-03T10:46:45;17.40;99.90
48575;DHT22;34352;51.084;3.712;2023-04-03T10:52:40;16.60;99.90
48575;DHT22;34352;51.084;3.712;2023-04-03T10:57:57;17.60;99.90
48575;DHT22;34352;51.084;3.712;2023-04-03T11:00:55;17.70;99.90
48575;DHT22;34352;51.084;3.712;2023-04-03T11:06:53;19.30;99.90
48575;DHT22;34352;51.084;3.712;2023-04-03T11:12:52;19.30;99.90
48575;DHT22;34352;51.084;3.712;2023-04-03T11:15:22;18.90;99.90
48575;DHT22;34352;51.084;3.712;2023-04-03T11:17:55;18.90;99.90
48575;DHT22;34352;51.084;3.712;2023-04-03T11:20:31;18.50;99.90
48575;DHT22;34352;51.084;3.712;2023-04-03T11:23:25;18.30;99.90
48575;DHT22;34352;51.084;3.712;2023-04-03T11:25:54;18.20;99.90
48575;DHT22;34352;51.084;3.712;2023-04-03T11:28:28;17.10;99.90
48575;DHT22;34352;51.084;3.712;2023-04-03T11:37:29;18.00;99.90
48575;DHT22;34352;51.084;3.712;2023-04-03T11:40:26;18.60;99.90
48575;DHT22;34352;51.084;3.712;2023-04-03T11:45:54;17.10;99.90
48575;DHT22;34352;51.084;3.712;2023-04-03T11:53:44;17.70;99.90
48575;DHT22;34352;51.084;3.712;2023-04-03T11:59:21;19.00;99.90
48575;DHT22;34352;51.084;3.712;2023-04-03T12:01:53;18.40;99.90
48575;DHT22;34352;51.084;3.712;2023-04-03T12:04:21;18.70;99.90
48575;DHT22;34352;51.084;3.712;2023-04-03T12:09:27;18.80;99.90
48575;DHT22;34352;51.084;3.712;2023-04-03T12:11:56;18.90;99.90
48575;DHT22;34352;51.084;3.712;2023-04-03T12:14:24;18.30;99.90
48575;DHT22;34352;51.084;3.712;2023-04-03T12:16:54;18.50;99.90
48575;DHT22;34352;51.084;3.712;2023-04-03T12:24:30;18.30;99.90
48575;DHT22;34352;51.084;3.712;2023-04-03T12:29:38;17.70;99.90
48575;DHT22;34352;51.084;3.712;2023-04-03T12:38:41;17.70;99.90
48575;DHT22;34352;51.084;3.712;2023-04-03T12:41:21;17.90;99.90
48575;DHT22;34352;51.084;3.712;2023-04-03T12:46:33;17.90;99.90
48575;DHT22;34352;51.084;3.712;2023-04-03T12:49:02;18.30;99.90
48575;DHT22;34352;51.084;3.712;2023-04-03T12:51:44;18.30;99.90
48575;DHT22;34352;51.084;3.712;2023-04-03T12:54:22;18.60;99.90
48575;DHT22;34352;51.084;3.712;2023-04-03T12:59:41;18.40;99.90
48575;DHT22;34352;51.084;3.712;2023-04-03T13:02:32;18.40;99.90
48575;DHT22;34352;51.084;3.712;2023-04-03T13:05:06;18.80;99.90
48575;DHT22;34352;51.084;3.712;2023-04-03T13:07:35;18.50;99.90
48575;DHT22;34352;51.084;3.712;2023-04-03T13:12:56;17.80;99.90
48575;DHT22;34352;51.084;3.712;2023-04-03T13:15:24;17.90;99.90
48575;DHT22;34352;51.084;3.712;2023-04-03T13:17:52;17.50;99.90
48575;DHT22;34352;51.084;3.712;2023-04-03T13:20:35;17.90;99.90
48575;DHT22;34352;51.084;3.712;2023-04-03T13:23:07;18.60;1.00
48575;DHT22;34352;51.084;3.712;2023-04-03T13:25:42;18.70;1.00
48575;DHT22;34352;51.084;3.712;2023-04-03T13:28:20;17.70;99.90
48575;DHT22;34352;51.084;3.712;2023-04-03T13:33:32;16.80;99.90
48575;DHT22;34352;51.084;3.712;2023-04-03T13:36:17;16.30;99.90
48575;DHT22;34352;51.084;3.712;2023-04-03T13:39:17;16.50;99.90
48575;DHT22;34352;51.084;3.712;2023-04-03T13:41:54;17.20;99.90
48575;DHT22;34352;51.084;3.712;2023-04-03T13:44:31;16.80;1.00
48575;DHT22;34352;51.084;3.712;2023-04-03T13:47:17;16.50;99.90
48575;DHT22;34352;51.084;3.712;2023-04-03T13:59:27;17.60;1.00
48575;DHT22;34352;51.084;3.712;2023-04-03T14:07:51;16.70;99.90
48575;DHT22;34352;51.084;3.712;2023-04-03T14:10:18;17.20;1.00
48575;DHT22;34352;51.084;3.712;2023-04-03T14:12:47;17.00;1.00
48575;DHT22;34352;51.084;3.712;2023-04-03T14:15:28;17.10;1.00
48575;DHT22;34352;51.084;3.712;2023-04-03T14:18:11;16.70;1.00
48575;DHT22;34352;51.084;3.712;2023-04-03T14:20:37;16.70;1.00
48575;DHT22;34352;51.084;3.712;2023-04-03T14:23:02;16.90;1.00
48575;DHT22;34352;51.084;3.712;2023-04-03T14:25:29;16.80;1.00
48575;DHT22;34352;51.084;3.712;2023-04-03T14:28:06;16.10;1.00
48575;DHT22;34352;51.084;3.712;2023-04-03T14:30:39;16.00;1.00
48575;DHT22;34352;51.084;3.712;2023-04-03T14:33:12;15.90;1.00
48575;DHT22;34352;51.084;3.712;2023-04-03T14:35:43;16.00;1.00
48575;DHT22;34352;51.084;3.712;2023-04-03T14:41:32;15.40;1.00
48575;DHT22;34352;51.084;3.712;2023-04-03T14:44:09;15.10;1.00
48575;DHT22;34352;51.084;3.712;2023-04-03T14:46:43;14.60;1.00
48575;DHT22;34352;51.084;3.712;2023-04-03T14:49:19;14.50;1.00
48575;DHT22;34352;51.084;3.712;2023-04-03T14:51:53;14.20;1.00
48575;DHT22;34352;51.084;3.712;2023-04-03T14:54:38;14.70;1.00
48575;DHT22;34352;51.084;3.712;2023-04-03T14:57:09;14.90;1.00
48575;DHT22;34352;51.084;3.712;2023-04-03T14:59:45;14.60;1.00
48575;DHT22;34352;51.084;3.712;2023-04-03T15:05:28;13.30;1.00
48575;DHT22;34352;51.084;3.712;2023-04-03T15:08:22;13.00;1.00
48575;DHT22;34352;51.084;3.712;2023-04-03T15:10:50;13.00;1.00
48575;DHT22;34352;51.084;3.712;2023-04-03T15:13:20;12.90;1.00
48575;DHT22;34352;51.084;3.712;2023-04-03T15:15:54;12.80;1.00
48575;DHT22;34352;51.084;3.712;2023-04-03T15:18:28;12.40;99.90
48575;DHT22;34352;51.084;3.712;2023-04-03T15:21:12;12.50;1.00
48575;DHT22;34352;51.084;3.712;2023-04-03T15:24:14;12.50;99.90
48575;DHT22;34352;51.084;3.712;2023-04-03T15:26:42;12.40;99.90
48575;DHT22;34352;51.084;3.712;2023-04-03T15:32:30;12.40;1.00
48575;DHT22;34352;51.084;3.712;2023-04-03T15:34:59;10.90;99.90
48575;DHT22;34352;51.084;3.712;2023-04-03T15:37:26;13.10;99.90
48575;DHT22;34352;51.084;3.712;2023-04-03T15:39:55;11.80;99.90
48575;DHT22;34352;51.084;3.712;2023-04-03T15:46:00;12.70;99.90
48575;DHT22;34352;51.084;3.712;2023-04-03T15:48:39;12.40;1.00
48575;DHT22;34352;51.084;3.712;2023-04-03T15:51:06;12.50;99.90
48575;DHT22;34352;51.084;3.712;2023-04-03T15:53:36;12.30;99.90
48575;DHT22;34352;51.084;3.712;2023-04-03T15:56:08;14.30;99.90
48575;DHT22;34352;51.084;3.712;2023-04-03T15:58:35;12.20;99.90
48575;DHT22;34352;51.084;3.712;2023-04-03T16:01:12;12.20;99.90
48575;DHT22;34352;51.084;3.712;2023-04-03T16:03:40;11.50;99.90
48575;DHT22;34352;51.084;3.712;2023-04-03T16:06:14;11.50;1.00
48575;DHT22;34352;51.084;3.712;2023-04-03T16:08:47;11.80;1.00
48575;DHT22;34352;51.084;3.712;2023-04-03T16:11:14;12.00;1.00
48575;DHT22;34352;51.084;3.712;2023-04-03T16:13:40;11.90;99.90
48575;DHT22;34352;51.084;3.712;2023-04-03T16:16:29;13.30;99.90
48575;DHT22;34352;51.084;3.712;2023-04-03T16:19:21;11.90;1.00
48575;DHT22;34352;51.084;3.712;2023-04-03T16:21:49;11.70;99.90
48575;DHT22;34352;51.084;3.712;2023-04-03T16:24:24;11.80;1.00
48575;DHT22;34352;51.084;3.712;2023-04-03T16:26:59;11.40;99.90
48575;DHT22;34352;51.084;3.712;2023-04-03T16:29:27;11.90;99.90
48575;DHT22;34352;51.084;3.712;2023-04-03T16:31:55;11.60;99.90
48575;DHT22;34352;51.084;3.712;2023-04-03T16:34:23;11.40;99.90
48575;DHT22;34352;51.084;3.712;2023-04-03T16:36:57;11.70;99.90
48575;DHT22;34352;51.084;3.712;2023-04-03T16:39:25;11.70;99.90
48575;DHT22;34352;51.084;3.712;2023-04-03T16:41:55;11.60;99.90
48575;DHT22;34352;51.084;3.712;2023-04-03T16:44:22;10.50;99.90
48575;DHT22;34352;51.084;3.712;2023-04-03T16:46:52;10.00;99.90
48575;DHT22;34352;51.084;3.712;2023-04-03T16:49:22;11.60;99.90
48575;DHT22;34352;51.084;3.712;2023-04-03T16:54:40;11.30;99.90
48575;DHT22;34352;51.084;3.712;2023-04-03T16:57:08;11.80;99.90
48575;DHT22;34352;51.084;3.712;2023-04-03T16:59:35;11.10;99.90
48575;DHT22;34352;51.084;3.712;2023-04-03T17:02:10;11.10;99.90
48575;DHT22;34352;51.084;3.712;2023-04-03T17:04:38;11.10;99.90
48575;DHT22;34352;51.084;3.712;2023-04-03T17:07:04;10.90;99.90
48575;DHT22;34352;51.084;3.712;2023-04-03T17:09:34;10.90;99.90
48575;DHT22;34352;51.084;3.712;2023-04-03T17:12:10;10.90;99.90
48575;DHT22;34352;51.084;3.712;2023-04-03T17:14:38;10.80;99.90
48575;DHT22;34352;51.084;3.712;2023-04-03T17:17:06;11.00;99.90
48575;DHT22;34352;51.084;3.712;2023-04-03T17:19:36;11.70;99.90
48575;DHT22;34352;51.084;3.712;2023-04-03T17:22:03;10.70;99.90
48575;DHT22;34352;51.084;3.712;2023-04-03T17:24:35;10.50;99.90
48575;DHT22;34352;51.084;3.712;2023-04-03T17:27:10;10.50;99.90
48575;DHT22;34352;51.084;3.712;2023-04-03T17:29:43;10.50;99.90
48575;DHT22;34352;51.084;3.712;2023-04-03T17:32:13;10.30;99.90
48575;DHT22;34352;51.084;3.712;2023-04-03T17:34:45;10.30;99.90
48575;DHT22;34352;51.084;3.712;2023-04-03T17:37:12;10.10;99.90
48575;DHT22;34352;51.084;3.712;2023-04-03T17:39:39;10.20;99.90
48575;DHT22;34352;51.084;3.712;2023-04-03T17:42:15;10.20;99.90
48575;DHT22;34352;51.084;3.712;2023-04-03T17:45:00;10.20;99.90
48575;DHT22;34352;51.084;3.712;2023-04-03T17:47:27;10.30;99.90
48575;DHT22;34352;51.084;3.712;2023-04-03T17:49:53;10.00;99.90
48575;DHT22;34352;51.084;3.712;2023-04-03T17:52:41;9.90;99.90
48575;DHT22;34352;51.084;3.712;2023-04-03T17:55:10;8.80;99.90
48575;DHT22;34352;51.084;3.712;2023-04-03T17:57:42;9.80;99.90
48575;DHT22;34352;51.084;3.712;2023-04-03T18:00:13;9.20;99.90
48575;DHT22;34352;51.084;3.712;2023-04-03T18:02:45;9.60;99.90
48575;DHT22;34352;51.084;3.712;2023-04-03T18:05:12;9.50;99.90
48575;DHT22;34352;51.084;3.712;2023-04-03T18:10:49;9.70;99.90
48575;DHT22;34352;51.084;3.712;2023-04-03T18:13:27;9.40;99.90
48575;DHT22;34352;51.084;3.712;2023-04-03T18:16:11;9.40;99.90
48575;DHT22;34352;51.084;3.712;2023-04-03T18:21:16;9.20;99.90
48575;DHT22;34352;51.084;3.712;2023-04-03T18:23:50;9.20;99.90
48575;DHT22;34352;51.084;3.712;2023-04-03T18:29:24;7.90;99.90
48575;DHT22;34352;51.084;3.712;2023-04-03T18:31:55;8.90;99.90
48575;DHT22;34352;51.084;3.712;2023-04-03T18:34:32;8.70;99.90
48575;DHT22;34352;51.084;3.712;2023-04-03T18:37:00;10.10;99.90
48575;DHT22;34352;51.084;3.712;2023-04-03T18:39:36;8.60;99.90
48575;DHT22;34352;51.084;3.712;2023-04-03T18:42:18;9.10;99.90
48575;DHT22;34352;51.084;3.712;2023-04-03T18:45:00;8.50;99.90
48575;DHT22;34352;51.084;3.712;2023-04-03T18:47:44;9.30;99.90
48575;DHT22;34352;51.084;3.712;2023-04-03T18:50:16;7.70;99.90
48575;DHT22;34352;51.084;3.712;2023-04-03T18:52:56;10.10;99.90
48575;DHT22;34352;51.084;3.712;2023-04-03T18:55:56;8.50;99.90
48575;DHT22;34352;51.084;3.712;2023-04-03T18:58:26;8.20;99.90
48575;DHT22;34352;51.084;3.712;2023-04-03T19:01:03;7.20;99.90
48575;DHT22;34352;51.084;3.712;2023-04-03T19:03:44;7.30;99.90
48575;DHT22;34352;51.084;3.712;2023-04-03T19:06:11;8.10;99.90